sensor_id;sensor_type;location;lat;lon;timestamp;P1;durP1;ratioP1;P2;durP2;ratioP2
20629;SDS011;17386;43.846;25.950;2024-02-26T00:02:16;12.88;;;7.00;;
20629;SDS011;17386;43.846;25.950;2024-02-26T00:04:41;14.20;;;7.40;;
20629;SDS011;17386;43.846;25.950;2024-02-26T00:07:07;16.45;;;7.13;;
20629;SDS011;17386;43.846;25.950;2024-02-26T00:09:32;16.00;;;7.65;;
20629;SDS011;17386;43.846;25.950;2024-02-26T00:12:01;14.70;;;7.47;;
20629;SDS011;17386;43.846;25.950;2024-02-26T00:14:28;14.60;;;6.95;;
20629;SDS011;17386;43.846;25.950;2024-02-26T00:16:54;16.88;;;6.90;;
20629;SDS011;17386;43.846;25.950;2024-02-26T00:19:19;17.45;;;7.53;;
20629;SDS011;17386;43.846;25.950;2024-02-26T00:21:45;18.35;;;7.72;;
20629;SDS011;17386;43.846;25.950;2024-02-26T00:24:10;15.25;;;7.32;;
20629;SDS011;17386;43.846;25.950;2024-02-26T00:26:36;15.40;;;7.10;;
20629;SDS011;17386;43.846;25.950;2024-02-26T00:29:01;20.00;;;8.13;;
20629;SDS011;17386;43.846;25.950;2024-02-26T00:31:27;19.60;;;9.20;;
20629;SDS011;17386;43.846;25.950;2024-02-26T00:33:52;15.45;;;8.20;;
20629;SDS011;17386;43.846;25.950;2024-02-26T00:36:17;19.02;;;8.38;;
20629;SDS011;17386;43.846;25.950;2024-02-26T00:38:43;17.17;;;8.05;;
20629;SDS011;17386;43.846;25.950;2024-02-26T00:41:11;16.13;;;8.07;;
20629;SDS011;17386;43.846;25.950;2024-02-26T00:43:36;16.73;;;8.18;;
20629;SDS011;17386;43.846;25.950;2024-02-26T00:46:04;18.77;;;8.75;;
20629;SDS011;17386;43.846;25.950;2024-02-26T00:48:29;16.23;;;7.93;;
20629;SDS011;17386;43.846;25.950;2024-02-26T00:50:55;16.75;;;8.00;;
20629;SDS011;17386;43.846;25.950;2024-02-26T00:53:20;19.30;;;8.27;;
20629;SDS011;17386;43.846;25.950;2024-02-26T00:55:46;16.48;;;7.80;;
20629;SDS011;17386;43.846;25.950;2024-02-26T00:58:11;18.02;;;7.47;;
20629;SDS011;17386;43.846;25.950;2024-02-26T01:00:36;17.60;;;7.43;;
20629;SDS011;17386;43.846;25.950;2024-02-26T01:03:02;17.08;;;7.20;;
20629;SDS011;17386;43.846;25.950;2024-02-26T01:05:28;15.30;;;7.07;;
20629;SDS011;17386;43.846;25.950;2024-02-26T01:07:54;16.58;;;7.30;;
20629;SDS011;17386;43.846;25.950;2024-02-26T01:10:19;15.00;;;7.15;;
20629;SDS011;17386;43.846;25.950;2024-02-26T01:12:45;15.93;;;7.82;;
20629;SDS011;17386;43.846;25.950;2024-02-26T01:15:10;16.88;;;7.57;;
20629;SDS011;17386;43.846;25.950;2024-02-26T01:17:36;16.38;;;6.65;;
20629;SDS011;17386;43.846;25.950;2024-02-26T01:20:01;17.63;;;8.20;;
20629;SDS011;17386;43.846;25.950;2024-02-26T01:22:27;15.18;;;7.63;;
20629;SDS011;17386;43.846;25.950;2024-02-26T01:24:52;19.55;;;7.65;;
20629;SDS011;17386;43.846;25.950;2024-02-26T01:27:17;18.40;;;8.23;;
20629;SDS011;17386;43.846;25.950;2024-02-26T01:29:43;14.43;;;7.68;;
20629;SDS011;17386;43.846;25.950;2024-02-26T01:32:10;19.80;;;7.18;;
20629;SDS011;17386;43.846;25.950;2024-02-26T01:34:35;16.35;;;7.25;;
20629;SDS011;17386;43.846;25.950;2024-02-26T01:37:02;17.02;;;6.70;;
20629;SDS011;17386;43.846;25.950;2024-02-26T01:39:27;15.93;;;7.00;;
20629;SDS011;17386;43.846;25.950;2024-02-26T01:41:55;15.25;;;7.53;;
20629;SDS011;17386;43.846;25.950;2024-02-26T01:44:21;13.13;;;6.40;;
20629;SDS011;17386;43.846;25.950;2024-02-26T01:46:46;14.63;;;6.68;;
20629;SDS011;17386;43.846;25.950;2024-02-26T01:49:13;16.85;;;7.18;;
20629;SDS011;17386;43.846;25.950;2024-02-26T01:51:39;13.98;;;6.18;;
20629;SDS011;17386;43.846;25.950;2024-02-26T01:54:06;12.13;;;6.22;;
20629;SDS011;17386;43.846;25.950;2024-02-26T01:56:33;17.50;;;6.63;;
20629;SDS011;17386;43.846;25.950;2024-02-26T01:59:01;14.23;;;6.88;;
20629;SDS011;17386;43.846;25.950;2024-02-26T02:01:27;15.18;;;6.85;;
20629;SDS011;17386;43.846;25.950;2024-02-26T02:03:54;13.45;;;7.00;;
20629;SDS011;17386;43.846;25.950;2024-02-26T02:06:22;16.45;;;7.43;;
20629;SDS011;17386;43.846;25.950;2024-02-26T02:08:48;18.95;;;8.40;;
20629;SDS011;17386;43.846;25.950;2024-02-26T02:11:14;18.55;;;9.40;;
20629;SDS011;17386;43.846;25.950;2024-02-26T02:13:40;18.13;;;9.07;;
20629;SDS011;17386;43.846;25.950;2024-02-26T02:16:05;19.98;;;8.63;;
20629;SDS011;17386;43.846;25.950;2024-02-26T02:18:31;20.55;;;8.55;;
20629;SDS011;17386;43.846;25.950;2024-02-26T02:20:57;20.17;;;8.35;;
20629;SDS011;17386;43.846;25.950;2024-02-26T02:23:25;20.50;;;8.70;;
20629;SDS011;17386;43.846;25.950;2024-02-26T02:25:50;18.23;;;8.95;;
20629;SDS011;17386;43.846;25.950;2024-02-26T02:28:16;19.83;;;9.00;;
20629;SDS011;17386;43.846;25.950;2024-02-26T02:30:42;21.45;;;9.55;;
20629;SDS011;17386;43.846;25.950;2024-02-26T02:33:08;19.63;;;9.23;;
20629;SDS011;17386;43.846;25.950;2024-02-26T02:35:33;18.98;;;9.40;;
20629;SDS011;17386;43.846;25.950;2024-02-26T02:37:59;21.67;;;9.18;;
20629;SDS011;17386;43.846;25.950;2024-02-26T02:40:24;20.67;;;9.20;;
20629;SDS011;17386;43.846;25.950;2024-02-26T02:42:50;18.45;;;9.40;;
20629;SDS011;17386;43.846;25.950;2024-02-26T02:45:15;18.95;;;8.90;;
20629;SDS011;17386;43.846;25.950;2024-02-26T02:47:40;22.88;;;8.88;;
20629;SDS011;17386;43.846;25.950;2024-02-26T02:50:06;20.40;;;9.68;;
20629;SDS011;17386;43.846;25.950;2024-02-26T02:52:32;20.58;;;9.50;;
20629;SDS011;17386;43.846;25.950;2024-02-26T02:54:57;23.73;;;10.18;;
20629;SDS011;17386;43.846;25.950;2024-02-26T02:57:23;19.70;;;8.88;;
20629;SDS011;17386;43.846;25.950;2024-02-26T02:59:48;19.00;;;9.30;;
20629;SDS011;17386;43.846;25.950;2024-02-26T03:02:14;21.80;;;9.73;;
20629;SDS011;17386;43.846;25.950;2024-02-26T03:04:39;21.88;;;9.95;;
20629;SDS011;17386;43.846;25.950;2024-02-26T03:07:05;26.02;;;11.98;;
20629;SDS011;17386;43.846;25.950;2024-02-26T03:09:30;26.50;;;10.82;;
20629;SDS011;17386;43.846;25.950;2024-02-26T03:11:56;21.10;;;11.02;;
20629;SDS011;17386;43.846;25.950;2024-02-26T03:14:21;21.85;;;10.48;;
20629;SDS011;17386;43.846;25.950;2024-02-26T03:16:47;22.67;;;10.88;;
20629;SDS011;17386;43.846;25.950;2024-02-26T03:19:15;22.08;;;10.93;;
20629;SDS011;17386;43.846;25.950;2024-02-26T03:21:43;18.85;;;10.07;;
20629;SDS011;17386;43.846;25.950;2024-02-26T03:24:09;22.73;;;10.40;;
20629;SDS011;17386;43.846;25.950;2024-02-26T03:26:35;22.42;;;10.15;;
20629;SDS011;17386;43.846;25.950;2024-02-26T03:29:01;20.88;;;9.65;;
20629;SDS011;17386;43.846;25.950;2024-02-26T03:31:27;23.70;;;10.40;;
20629;SDS011;17386;43.846;25.950;2024-02-26T03:33:53;21.90;;;10.27;;
20629;SDS011;17386;43.846;25.950;2024-02-26T03:36:19;22.02;;;10.43;;
20629;SDS011;17386;43.846;25.950;2024-02-26T03:38:45;17.98;;;9.60;;
20629;SDS011;17386;43.846;25.950;2024-02-26T03:41:10;15.88;;;8.85;;
20629;SDS011;17386;43.846;25.950;2024-02-26T03:43:35;20.15;;;9.65;;
20629;SDS011;17386;43.846;25.950;2024-02-26T03:46:01;19.73;;;9.63;;
20629;SDS011;17386;43.846;25.950;2024-02-26T03:48:27;18.23;;;9.88;;
20629;SDS011;17386;43.846;25.950;2024-02-26T03:50:52;21.33;;;10.20;;
20629;SDS011;17386;43.846;25.950;2024-02-26T03:53:18;19.33;;;9.73;;
20629;SDS011;17386;43.846;25.950;2024-02-26T03:55:43;21.40;;;9.90;;
20629;SDS011;17386;43.846;25.950;2024-02-26T03:58:08;23.27;;;9.93;;
20629;SDS011;17386;43.846;25.950;2024-02-26T04:00:34;19.83;;;10.15;;
20629;SDS011;17386;43.846;25.950;2024-02-26T04:02:59;21.88;;;10.20;;
20629;SDS011;17386;43.846;25.950;2024-02-26T04:05:25;24.42;;;11.02;;
20629;SDS011;17386;43.846;25.950;2024-02-26T04:07:50;24.67;;;9.68;;
20629;SDS011;17386;43.846;25.950;2024-02-26T04:10:16;21.00;;;9.68;;
20629;SDS011;17386;43.846;25.950;2024-02-26T04:12:41;22.25;;;10.55;;
20629;SDS011;17386;43.846;25.950;2024-02-26T04:15:08;20.20;;;10.38;;
20629;SDS011;17386;43.846;25.950;2024-02-26T04:17:35;24.52;;;10.40;;
20629;SDS011;17386;43.846;25.950;2024-02-26T04:20:01;21.13;;;10.40;;
20629;SDS011;17386;43.846;25.950;2024-02-26T04:22:27;21.10;;;10.32;;
20629;SDS011;17386;43.846;25.950;2024-02-26T04:24:53;22.80;;;10.18;;
20629;SDS011;17386;43.846;25.950;2024-02-26T04:27:18;23.60;;;9.80;;
20629;SDS011;17386;43.846;25.950;2024-02-26T04:29:44;20.10;;;9.25;;
20629;SDS011;17386;43.846;25.950;2024-02-26T04:32:09;22.02;;;9.77;;
20629;SDS011;17386;43.846;25.950;2024-02-26T04:34:35;23.27;;;10.60;;
20629;SDS011;17386;43.846;25.950;2024-02-26T04:37:00;20.38;;;10.05;;
20629;SDS011;17386;43.846;25.950;2024-02-26T04:39:25;22.92;;;9.50;;
20629;SDS011;17386;43.846;25.950;2024-02-26T04:41:51;30.33;;;10.38;;
20629;SDS011;17386;43.846;25.950;2024-02-26T04:44:16;20.23;;;9.13;;
20629;SDS011;17386;43.846;25.950;2024-02-26T04:46:42;20.50;;;9.70;;
20629;SDS011;17386;43.846;25.950;2024-02-26T04:49:07;20.58;;;10.23;;
20629;SDS011;17386;43.846;25.950;2024-02-26T04:51:32;20.25;;;9.10;;
20629;SDS011;17386;43.846;25.950;2024-02-26T04:53:58;19.65;;;8.70;;
20629;SDS011;17386;43.846;25.950;2024-02-26T04:56:25;18.75;;;8.77;;
20629;SDS011;17386;43.846;25.950;2024-02-26T04:58:50;21.00;;;8.68;;
20629;SDS011;17386;43.846;25.950;2024-02-26T05:01:16;21.90;;;9.25;;
20629;SDS011;17386;43.846;25.950;2024-02-26T05:03:42;19.63;;;9.00;;
20629;SDS011;17386;43.846;25.950;2024-02-26T05:06:08;19.48;;;9.25;;
20629;SDS011;17386;43.846;25.950;2024-02-26T05:08:34;21.80;;;9.90;;
20629;SDS011;17386;43.846;25.950;2024-02-26T05:11:01;19.45;;;9.00;;
20629;SDS011;17386;43.846;25.950;2024-02-26T05:13:29;21.92;;;9.45;;
20629;SDS011;17386;43.846;25.950;2024-02-26T05:15:55;23.25;;;10.18;;
20629;SDS011;17386;43.846;25.950;2024-02-26T05:18:20;22.67;;;10.65;;
20629;SDS011;17386;43.846;25.950;2024-02-26T05:20:46;25.27;;;10.48;;
20629;SDS011;17386;43.846;25.950;2024-02-26T05:23:12;24.40;;;10.68;;
20629;SDS011;17386;43.846;25.950;2024-02-26T05:25:37;26.73;;;11.25;;
20629;SDS011;17386;43.846;25.950;2024-02-26T05:28:03;22.52;;;10.18;;
20629;SDS011;17386;43.846;25.950;2024-02-26T05:30:28;23.58;;;10.52;;
20629;SDS011;17386;43.846;25.950;2024-02-26T05:32:54;24.83;;;9.77;;
20629;SDS011;17386;43.846;25.950;2024-02-26T05:35:19;21.67;;;9.57;;
20629;SDS011;17386;43.846;25.950;2024-02-26T05:37:45;19.50;;;9.40;;
20629;SDS011;17386;43.846;25.950;2024-02-26T05:40:10;18.45;;;8.85;;
20629;SDS011;17386;43.846;25.950;2024-02-26T05:42:36;18.55;;;9.32;;
20629;SDS011;17386;43.846;25.950;2024-02-26T05:45:01;20.27;;;8.85;;
20629;SDS011;17386;43.846;25.950;2024-02-26T05:47:34;20.92;;;9.23;;
20629;SDS011;17386;43.846;25.950;2024-02-26T05:49:59;22.85;;;8.95;;
20629;SDS011;17386;43.846;25.950;2024-02-26T05:52:26;23.45;;;10.18;;
20629;SDS011;17386;43.846;25.950;2024-02-26T05:54:57;24.55;;;9.93;;
20629;SDS011;17386;43.846;25.950;2024-02-26T05:57:23;21.10;;;10.50;;
20629;SDS011;17386;43.846;25.950;2024-02-26T05:59:48;23.40;;;9.35;;
20629;SDS011;17386;43.846;25.950;2024-02-26T06:02:13;22.17;;;9.65;;
20629;SDS011;17386;43.846;25.950;2024-02-26T06:04:39;20.88;;;10.13;;
20629;SDS011;17386;43.846;25.950;2024-02-26T06:07:04;20.90;;;10.07;;
20629;SDS011;17386;43.846;25.950;2024-02-26T06:09:30;20.60;;;10.48;;
20629;SDS011;17386;43.846;25.950;2024-02-26T06:11:55;20.30;;;10.35;;
20629;SDS011;17386;43.846;25.950;2024-02-26T06:14:21;20.33;;;9.85;;
20629;SDS011;17386;43.846;25.950;2024-02-26T06:16:46;22.85;;;11.02;;
20629;SDS011;17386;43.846;25.950;2024-02-26T06:19:12;21.77;;;10.30;;
20629;SDS011;17386;43.846;25.950;2024-02-26T06:21:37;21.27;;;9.93;;
20629;SDS011;17386;43.846;25.950;2024-02-26T06:24:02;22.13;;;10.50;;
20629;SDS011;17386;43.846;25.950;2024-02-26T06:26:28;23.58;;;10.63;;
20629;SDS011;17386;43.846;25.950;2024-02-26T06:28:54;22.10;;;10.52;;
20629;SDS011;17386;43.846;25.950;2024-02-26T06:31:21;27.92;;;11.35;;
20629;SDS011;17386;43.846;25.950;2024-02-26T06:33:48;25.55;;;12.13;;
20629;SDS011;17386;43.846;25.950;2024-02-26T06:36:14;26.38;;;10.68;;
20629;SDS011;17386;43.846;25.950;2024-02-26T06:38:40;30.60;;;11.80;;
20629;SDS011;17386;43.846;25.950;2024-02-26T06:41:05;32.45;;;12.93;;
20629;SDS011;17386;43.846;25.950;2024-02-26T06:43:31;30.75;;;11.20;;
20629;SDS011;17386;43.846;25.950;2024-02-26T06:45:56;26.35;;;12.38;;
20629;SDS011;17386;43.846;25.950;2024-02-26T06:48:23;24.40;;;12.75;;
20629;SDS011;17386;43.846;25.950;2024-02-26T06:50:49;26.02;;;11.82;;
20629;SDS011;17386;43.846;25.950;2024-02-26T06:53:15;27.58;;;10.93;;
20629;SDS011;17386;43.846;25.950;2024-02-26T06:55:41;28.65;;;12.07;;
20629;SDS011;17386;43.846;25.950;2024-02-26T06:58:07;26.63;;;11.30;;
20629;SDS011;17386;43.846;25.950;2024-02-26T07:00:32;25.35;;;11.25;;
20629;SDS011;17386;43.846;25.950;2024-02-26T07:02:58;26.05;;;11.70;;
20629;SDS011;17386;43.846;25.950;2024-02-26T07:05:23;28.15;;;12.32;;
20629;SDS011;17386;43.846;25.950;2024-02-26T07:07:49;24.45;;;11.10;;
20629;SDS011;17386;43.846;25.950;2024-02-26T07:10:14;30.80;;;11.65;;
20629;SDS011;17386;43.846;25.950;2024-02-26T07:12:40;26.48;;;12.05;;
20629;SDS011;17386;43.846;25.950;2024-02-26T07:15:05;23.67;;;12.38;;
20629;SDS011;17386;43.846;25.950;2024-02-26T07:17:33;38.53;;;13.55;;
20629;SDS011;17386;43.846;25.950;2024-02-26T07:20:02;34.05;;;14.80;;
20629;SDS011;17386;43.846;25.950;2024-02-26T07:22:30;30.20;;;13.02;;
20629;SDS011;17386;43.846;25.950;2024-02-26T07:24:56;28.58;;;12.77;;
20629;SDS011;17386;43.846;25.950;2024-02-26T07:27:21;46.97;;;15.95;;
20629;SDS011;17386;43.846;25.950;2024-02-26T07:29:47;26.77;;;10.95;;
20629;SDS011;17386;43.846;25.950;2024-02-26T07:32:12;24.42;;;10.82;;
20629;SDS011;17386;43.846;25.950;2024-02-26T07:34:38;24.63;;;11.27;;
20629;SDS011;17386;43.846;25.950;2024-02-26T07:37:06;39.08;;;14.82;;
20629;SDS011;17386;43.846;25.950;2024-02-26T07:39:32;33.38;;;13.65;;
20629;SDS011;17386;43.846;25.950;2024-02-26T07:41:58;28.70;;;12.27;;
20629;SDS011;17386;43.846;25.950;2024-02-26T07:44:23;28.05;;;13.23;;
20629;SDS011;17386;43.846;25.950;2024-02-26T07:46:49;27.02;;;12.43;;
20629;SDS011;17386;43.846;25.950;2024-02-26T07:49:14;24.13;;;12.00;;
20629;SDS011;17386;43.846;25.950;2024-02-26T07:51:39;31.45;;;14.25;;
20629;SDS011;17386;43.846;25.950;2024-02-26T07:54:05;36.25;;;12.57;;
20629;SDS011;17386;43.846;25.950;2024-02-26T07:56:31;26.85;;;13.43;;
20629;SDS011;17386;43.846;25.950;2024-02-26T07:58:56;27.83;;;12.63;;
20629;SDS011;17386;43.846;25.950;2024-02-26T08:01:21;26.33;;;12.60;;
20629;SDS011;17386;43.846;25.950;2024-02-26T08:03:48;35.97;;;15.05;;
20629;SDS011;17386;43.846;25.950;2024-02-26T08:06:13;32.85;;;14.18;;
20629;SDS011;17386;43.846;25.950;2024-02-26T08:08:38;37.35;;;14.35;;
20629;SDS011;17386;43.846;25.950;2024-02-26T08:11:04;26.60;;;13.73;;
20629;SDS011;17386;43.846;25.950;2024-02-26T08:13:29;35.03;;;14.27;;
20629;SDS011;17386;43.846;25.950;2024-02-26T08:15:55;27.60;;;14.35;;
20629;SDS011;17386;43.846;25.950;2024-02-26T08:18:20;32.25;;;14.90;;
20629;SDS011;17386;43.846;25.950;2024-02-26T08:20:45;36.65;;;15.00;;
20629;SDS011;17386;43.846;25.950;2024-02-26T08:23:11;28.23;;;13.52;;
20629;SDS011;17386;43.846;25.950;2024-02-26T08:25:36;36.05;;;12.35;;
20629;SDS011;17386;43.846;25.950;2024-02-26T08:28:02;53.38;;;16.52;;
20629;SDS011;17386;43.846;25.950;2024-02-26T08:30:28;36.10;;;14.20;;
20629;SDS011;17386;43.846;25.950;2024-02-26T08:32:53;35.13;;;13.02;;
20629;SDS011;17386;43.846;25.950;2024-02-26T08:35:18;30.50;;;12.18;;
20629;SDS011;17386;43.846;25.950;2024-02-26T08:37:45;30.42;;;13.07;;
20629;SDS011;17386;43.846;25.950;2024-02-26T08:40:11;23.73;;;10.82;;
20629;SDS011;17386;43.846;25.950;2024-02-26T08:42:37;26.08;;;10.77;;
20629;SDS011;17386;43.846;25.950;2024-02-26T08:45:02;23.63;;;10.82;;
20629;SDS011;17386;43.846;25.950;2024-02-26T08:47:28;23.38;;;10.45;;
20629;SDS011;17386;43.846;25.950;2024-02-26T08:49:53;43.45;;;13.02;;
20629;SDS011;17386;43.846;25.950;2024-02-26T08:52:19;35.65;;;13.40;;
20629;SDS011;17386;43.846;25.950;2024-02-26T08:54:44;41.65;;;15.65;;
20629;SDS011;17386;43.846;25.950;2024-02-26T08:57:10;27.27;;;11.00;;
20629;SDS011;17386;43.846;25.950;2024-02-26T08:59:35;24.58;;;10.13;;
20629;SDS011;17386;43.846;25.950;2024-02-26T09:02:01;23.92;;;10.77;;
20629;SDS011;17386;43.846;25.950;2024-02-26T09:04:26;30.45;;;12.63;;
20629;SDS011;17386;43.846;25.950;2024-02-26T09:06:52;29.00;;;12.45;;
20629;SDS011;17386;43.846;25.950;2024-02-26T09:09:18;27.65;;;11.88;;
20629;SDS011;17386;43.846;25.950;2024-02-26T09:11:44;26.30;;;13.20;;
20629;SDS011;17386;43.846;25.950;2024-02-26T09:14:10;23.35;;;9.57;;
20629;SDS011;17386;43.846;25.950;2024-02-26T09:16:35;19.63;;;9.27;;
20629;SDS011;17386;43.846;25.950;2024-02-26T09:19:01;20.20;;;9.23;;
20629;SDS011;17386;43.846;25.950;2024-02-26T09:21:27;20.02;;;9.38;;
20629;SDS011;17386;43.846;25.950;2024-02-26T09:23:53;19.08;;;8.52;;
20629;SDS011;17386;43.846;25.950;2024-02-26T09:26:19;18.23;;;8.30;;
20629;SDS011;17386;43.846;25.950;2024-02-26T09:28:45;23.35;;;9.02;;
20629;SDS011;17386;43.846;25.950;2024-02-26T09:31:10;25.48;;;8.40;;
20629;SDS011;17386;43.846;25.950;2024-02-26T09:33:36;22.08;;;9.52;;
20629;SDS011;17386;43.846;25.950;2024-02-26T09:36:02;16.63;;;8.45;;
20629;SDS011;17386;43.846;25.950;2024-02-26T09:38:29;16.08;;;8.13;;
20629;SDS011;17386;43.846;25.950;2024-02-26T09:40:58;22.63;;;8.90;;
20629;SDS011;17386;43.846;25.950;2024-02-26T09:43:24;20.13;;;8.48;;
20629;SDS011;17386;43.846;25.950;2024-02-26T09:45:55;21.05;;;9.63;;
20629;SDS011;17386;43.846;25.950;2024-02-26T09:48:21;17.30;;;8.43;;
20629;SDS011;17386;43.846;25.950;2024-02-26T09:50:47;16.63;;;8.18;;
20629;SDS011;17386;43.846;25.950;2024-02-26T09:53:14;22.75;;;9.48;;
20629;SDS011;17386;43.846;25.950;2024-02-26T09:55:40;15.40;;;8.15;;
20629;SDS011;17386;43.846;25.950;2024-02-26T09:58:06;18.10;;;8.05;;
20629;SDS011;17386;43.846;25.950;2024-02-26T10:00:32;22.48;;;8.80;;
20629;SDS011;17386;43.846;25.950;2024-02-26T10:03:06;24.27;;;10.02;;
20629;SDS011;17386;43.846;25.950;2024-02-26T10:05:38;23.88;;;9.70;;
20629;SDS011;17386;43.846;25.950;2024-02-26T10:10:31;16.65;;;8.25;;
20629;SDS011;17386;43.846;25.950;2024-02-26T10:12:59;20.25;;;8.80;;
20629;SDS011;17386;43.846;25.950;2024-02-26T10:15:25;18.63;;;9.00;;
20629;SDS011;17386;43.846;25.950;2024-02-26T10:17:50;21.73;;;9.30;;
20629;SDS011;17386;43.846;25.950;2024-02-26T10:20:16;40.92;;;13.52;;
20629;SDS011;17386;43.846;25.950;2024-02-26T10:22:43;18.98;;;9.10;;
20629;SDS011;17386;43.846;25.950;2024-02-26T10:25:09;20.30;;;8.50;;
20629;SDS011;17386;43.846;25.950;2024-02-26T10:27:34;21.17;;;10.23;;
20629;SDS011;17386;43.846;25.950;2024-02-26T10:30:03;16.83;;;8.85;;
20629;SDS011;17386;43.846;25.950;2024-02-26T10:32:40;23.52;;;8.93;;
20629;SDS011;17386;43.846;25.950;2024-02-26T10:35:08;22.63;;;10.30;;
20629;SDS011;17386;43.846;25.950;2024-02-26T10:37:34;25.50;;;11.18;;
20629;SDS011;17386;43.846;25.950;2024-02-26T10:39:59;20.40;;;9.90;;
20629;SDS011;17386;43.846;25.950;2024-02-26T10:42:25;20.92;;;9.65;;
20629;SDS011;17386;43.846;25.950;2024-02-26T10:44:51;22.58;;;10.00;;
20629;SDS011;17386;43.846;25.950;2024-02-26T10:47:16;25.65;;;10.35;;
20629;SDS011;17386;43.846;25.950;2024-02-26T10:49:45;22.08;;;10.00;;
20629;SDS011;17386;43.846;25.950;2024-02-26T10:52:13;20.58;;;9.57;;
20629;SDS011;17386;43.846;25.950;2024-02-26T10:54:40;18.05;;;9.32;;
20629;SDS011;17386;43.846;25.950;2024-02-26T10:57:09;16.73;;;9.55;;
20629;SDS011;17386;43.846;25.950;2024-02-26T10:59:36;18.83;;;9.52;;
20629;SDS011;17386;43.846;25.950;2024-02-26T11:02:03;17.20;;;8.98;;
20629;SDS011;17386;43.846;25.950;2024-02-26T11:04:29;21.88;;;9.70;;
20629;SDS011;17386;43.846;25.950;2024-02-26T11:06:56;25.27;;;10.82;;
20629;SDS011;17386;43.846;25.950;2024-02-26T11:09:22;20.90;;;9.80;;
20629;SDS011;17386;43.846;25.950;2024-02-26T11:11:49;19.05;;;9.93;;
20629;SDS011;17386;43.846;25.950;2024-02-26T11:14:19;17.75;;;9.45;;
20629;SDS011;17386;43.846;25.950;2024-02-26T11:16:45;16.77;;;9.13;;
20629;SDS011;17386;43.846;25.950;2024-02-26T11:19:12;22.40;;;9.25;;
20629;SDS011;17386;43.846;25.950;2024-02-26T11:21:39;19.00;;;8.95;;
20629;SDS011;17386;43.846;25.950;2024-02-26T11:24:14;14.90;;;7.85;;
20629;SDS011;17386;43.846;25.950;2024-02-26T11:26:45;20.08;;;7.85;;
20629;SDS011;17386;43.846;25.950;2024-02-26T11:29:16;17.83;;;8.40;;
20629;SDS011;17386;43.846;25.950;2024-02-26T11:31:46;19.33;;;8.32;;
20629;SDS011;17386;43.846;25.950;2024-02-26T11:34:12;14.95;;;7.68;;
20629;SDS011;17386;43.846;25.950;2024-02-26T11:36:38;23.80;;;8.40;;
20629;SDS011;17386;43.846;25.950;2024-02-26T11:39:04;19.27;;;9.02;;
20629;SDS011;17386;43.846;25.950;2024-02-26T11:41:30;18.15;;;8.57;;
20629;SDS011;17386;43.846;25.950;2024-02-26T11:44:00;15.38;;;7.75;;
20629;SDS011;17386;43.846;25.950;2024-02-26T11:48:56;19.55;;;8.68;;
20629;SDS011;17386;43.846;25.950;2024-02-26T11:51:33;20.13;;;8.77;;
20629;SDS011;17386;43.846;25.950;2024-02-26T11:54:00;19.63;;;8.82;;
20629;SDS011;17386;43.846;25.950;2024-02-26T11:56:25;26.90;;;10.82;;
20629;SDS011;17386;43.846;25.950;2024-02-26T11:59:02;30.80;;;10.77;;
20629;SDS011;17386;43.846;25.950;2024-02-26T12:01:36;25.00;;;8.20;;
20629;SDS011;17386;43.846;25.950;2024-02-26T12:04:21;19.08;;;8.45;;
20629;SDS011;17386;43.846;25.950;2024-02-26T12:06:57;20.10;;;8.50;;
20629;SDS011;17386;43.846;25.950;2024-02-26T12:09:38;26.08;;;9.63;;
20629;SDS011;17386;43.846;25.950;2024-02-26T12:12:05;22.60;;;8.25;;
20629;SDS011;17386;43.846;25.950;2024-02-26T12:14:50;20.30;;;9.20;;
20629;SDS011;17386;43.846;25.950;2024-02-26T12:17:20;18.83;;;7.93;;
20629;SDS011;17386;43.846;25.950;2024-02-26T12:19:47;15.60;;;7.47;;
20629;SDS011;17386;43.846;25.950;2024-02-26T12:22:12;15.32;;;7.47;;
20629;SDS011;17386;43.846;25.950;2024-02-26T12:24:39;15.50;;;8.27;;
20629;SDS011;17386;43.846;25.950;2024-02-26T12:27:05;18.40;;;8.25;;
20629;SDS011;17386;43.846;25.950;2024-02-26T12:29:31;18.58;;;7.70;;
20629;SDS011;17386;43.846;25.950;2024-02-26T12:31:56;21.42;;;7.85;;
20629;SDS011;17386;43.846;25.950;2024-02-26T12:34:22;16.30;;;8.25;;
20629;SDS011;17386;43.846;25.950;2024-02-26T12:36:48;18.73;;;8.60;;
20629;SDS011;17386;43.846;25.950;2024-02-26T12:39:14;21.67;;;8.93;;
20629;SDS011;17386;43.846;25.950;2024-02-26T12:41:39;17.38;;;8.05;;
20629;SDS011;17386;43.846;25.950;2024-02-26T12:44:05;17.52;;;8.13;;
20629;SDS011;17386;43.846;25.950;2024-02-26T12:46:33;17.35;;;7.65;;
20629;SDS011;17386;43.846;25.950;2024-02-26T12:48:59;15.80;;;8.10;;
20629;SDS011;17386;43.846;25.950;2024-02-26T12:51:27;16.73;;;8.13;;
20629;SDS011;17386;43.846;25.950;2024-02-26T12:53:54;15.43;;;8.20;;
20629;SDS011;17386;43.846;25.950;2024-02-26T12:56:21;12.70;;;7.10;;
20629;SDS011;17386;43.846;25.950;2024-02-26T12:58:47;17.10;;;8.00;;
20629;SDS011;17386;43.846;25.950;2024-02-26T13:01:16;13.13;;;7.28;;
20629;SDS011;17386;43.846;25.950;2024-02-26T13:03:44;17.40;;;8.18;;
20629;SDS011;17386;43.846;25.950;2024-02-26T13:06:10;16.25;;;6.82;;
20629;SDS011;17386;43.846;25.950;2024-02-26T13:08:36;14.27;;;7.78;;
20629;SDS011;17386;43.846;25.950;2024-02-26T13:11:01;15.77;;;6.70;;
20629;SDS011;17386;43.846;25.950;2024-02-26T13:13:27;12.18;;;6.57;;
20629;SDS011;17386;43.846;25.950;2024-02-26T13:16:02;16.05;;;8.00;;
20629;SDS011;17386;43.846;25.950;2024-02-26T13:18:29;16.10;;;7.80;;
20629;SDS011;17386;43.846;25.950;2024-02-26T13:21:06;13.93;;;6.82;;
20629;SDS011;17386;43.846;25.950;2024-02-26T13:23:33;20.73;;;6.88;;
20629;SDS011;17386;43.846;25.950;2024-02-26T13:25:58;15.48;;;8.35;;
20629;SDS011;17386;43.846;25.950;2024-02-26T13:28:24;17.70;;;7.78;;
20629;SDS011;17386;43.846;25.950;2024-02-26T13:30:55;15.68;;;7.13;;
20629;SDS011;17386;43.846;25.950;2024-02-26T13:33:22;16.55;;;6.57;;
20629;SDS011;17386;43.846;25.950;2024-02-26T13:35:49;16.23;;;7.07;;
20629;SDS011;17386;43.846;25.950;2024-02-26T13:38:15;16.52;;;7.60;;
20629;SDS011;17386;43.846;25.950;2024-02-26T13:40:41;15.32;;;6.75;;
20629;SDS011;17386;43.846;25.950;2024-02-26T13:43:06;18.15;;;7.03;;
20629;SDS011;17386;43.846;25.950;2024-02-26T13:45:35;15.55;;;6.97;;
20629;SDS011;17386;43.846;25.950;2024-02-26T13:48:03;13.40;;;6.63;;
20629;SDS011;17386;43.846;25.950;2024-02-26T13:53:01;15.48;;;6.75;;
20629;SDS011;17386;43.846;25.950;2024-02-26T13:55:27;13.52;;;5.68;;
20629;SDS011;17386;43.846;25.950;2024-02-26T13:57:58;13.07;;;5.80;;
20629;SDS011;17386;43.846;25.950;2024-02-26T14:00:26;13.82;;;6.22;;
20629;SDS011;17386;43.846;25.950;2024-02-26T14:02:57;16.40;;;5.95;;
20629;SDS011;17386;43.846;25.950;2024-02-26T14:05:23;15.27;;;6.05;;
20629;SDS011;17386;43.846;25.950;2024-02-26T14:07:48;11.57;;;6.15;;
20629;SDS011;17386;43.846;25.950;2024-02-26T14:10:14;13.63;;;5.90;;
20629;SDS011;17386;43.846;25.950;2024-02-26T14:12:40;18.48;;;5.82;;
20629;SDS011;17386;43.846;25.950;2024-02-26T14:15:06;13.10;;;6.07;;
20629;SDS011;17386;43.846;25.950;2024-02-26T14:17:32;17.52;;;6.60;;
20629;SDS011;17386;43.846;25.950;2024-02-26T14:19:58;12.43;;;6.18;;